ADDS METAR Data INFO
IDs: Format: Raw Decoded Include TAF

Data at: 1715 UTC 23 Oct 2017

KONA 231712Z AUTO 31008KT 10SM BKN100 BKN120 12/05 A2976 RMK AO2
KONA 231651Z AUTO 29008KT 261V321 10SM SCT065 OVC090 12/05 A2977 RMK AO2
KONA 231632Z AUTO 30006KT 10SM -RA SCT070 OVC080 12/05 A2978 RMK AO2
KONA 231612Z AUTO 26005KT 10SM BKN090 BKN110 12/05 A2979 RMK AO2
KONA 231551Z AUTO 29003KT 10SM SCT090 BKN110 12/05 A2979 RMK AO2
KONA 231532Z AUTO 30003KT 10SM OVC100 11/04 A2980 RMK AO2
KONA 231512Z AUTO 25005KT 10SM BKN110 11/04 A2980 RMK AO2
KONA 231451Z AUTO 28003KT 10SM SCT120 11/05 A2979 RMK AO2
KONA 231432Z AUTO 22004KT 10SM SCT100 09/03 A2980 RMK AO2
KONA 231411Z AUTO 21003KT 10SM OVC100 10/04 A2982 RMK AO2
KONA 231357Z AUTO 19003KT 10SM OVC110 10/03 A2982 RMK AO2
KONA 231332Z AUTO 00000KT 10SM SCT110 09/03 A2982 RMK AO2
KONA 231311Z AUTO 00000KT 10SM CLR 09/03 A2982 RMK AO2
KONA 231252Z AUTO 15003KT 10SM CLR 09/05 A2980 RMK AO2
KONA 231232Z AUTO 13004KT 10SM CLR 09/04 A2980 RMK AO2
KONA 231211Z AUTO 15004KT 10SM SCT120 09/05 A2981 RMK AO2
KONA 231152Z AUTO 15007KT 10SM SCT120 09/05 A2982 RMK AO2
KONA 231132Z AUTO 14006KT 10SM CLR 09/05 A2984 RMK AO2
KONA 231111Z AUTO 15004KT 10SM CLR 09/05 A2986 RMK AO2
KONA 231052Z AUTO 13006KT 10SM CLR 09/05 A2986 RMK AO2
KONA 231032Z AUTO 13004KT 10SM CLR 09/05 A2987 RMK AO2
KONA 231011Z AUTO 13004KT 10SM SCT090 09/05 A2987 RMK AO2
KONA 230952Z AUTO 13004KT 10SM BKN090 BKN120 10/05 A2987 RMK AO2
KONA 230932Z AUTO 00000KT 10SM OVC080 10/05 A2989 RMK AO2
KONA 230912Z AUTO 00000KT 10SM OVC090 11/05 A2989 RMK AO2
KONA 230852Z AUTO 00000KT 10SM OVC100 09/05 A2990 RMK AO2
KONA 230832Z AUTO 12003KT 10SM SCT110 09/06 A2991 RMK AO2
KONA 230812Z AUTO 11003KT 10SM CLR 09/06 A2992 RMK AO2
KONA 230752Z AUTO 00000KT 10SM CLR 09/06 A2993 RMK AO2
KONA 230731Z AUTO 00000KT 10SM CLR 08/05 A2994 RMK AO2
KONA 230712Z AUTO 14005KT 10SM CLR 08/05 A2994 RMK AO2
KONA 230652Z AUTO 14005KT 10SM CLR 09/06 A2994 RMK AO2
KONA 230631Z AUTO 13005KT 10SM CLR 08/06 A2994 RMK AO2
KONA 230612Z AUTO 15003KT 10SM CLR 08/05 A2995 RMK AO2
KONA 230552Z AUTO 00000KT 10SM CLR 09/06 A2996 RMK AO2
KONA 230531Z AUTO 16003KT 10SM CLR 09/05 A2996 RMK AO2
KONA 230512Z AUTO 00000KT 10SM CLR 09/06 A2997 RMK AO2
KONA 230452Z AUTO 00000KT 10SM CLR 09/06 A2997 RMK AO2
KONA 230431Z AUTO 00000KT 10SM CLR 09/05 A2998 RMK AO2
KONA 230412Z AUTO 00000KT 10SM CLR 09/06 A2999 RMK AO2
KONA 230352Z AUTO 21003KT 10SM CLR 09/06 A2999 RMK AO2
KONA 230331Z AUTO 00000KT 10SM CLR 09/06 A2999 RMK AO2
KONA 230312Z AUTO 00000KT 10SM CLR 09/06 A3000 RMK AO2
KONA 230251Z AUTO 13003KT 10SM CLR 09/06 A3001 RMK AO2
KONA 230232Z AUTO 00000KT 10SM CLR 09/06 A3000 RMK AO2
KONA 230212Z AUTO 13004KT 10SM CLR 09/06 A3000 RMK AO2
KONA 230151Z AUTO 13004KT 10SM CLR 09/05 A3000 RMK AO2
KONA 230132Z AUTO 13006KT 10SM CLR 09/05 A3000 RMK AO2
KONA 230112Z AUTO 13004KT 10SM CLR 11/06 A3001 RMK AO2
KONA 230051Z AUTO 13007KT 10SM CLR 11/05 A3001 RMK AO2
KONA 230032Z AUTO 14007KT 10SM CLR 11/06 A3001 RMK AO2
KONA 230012Z AUTO 14007KT 10SM CLR 11/06 A3001 RMK AO2
KONA 222351Z AUTO 14006KT 10SM CLR 12/07 A3000 RMK AO2
KONA 222332Z AUTO 14005KT 10SM CLR 12/07 A3000 RMK AO2
KONA 222312Z AUTO 14005KT 10SM CLR 12/06 A2999 RMK AO2
KONA 222252Z AUTO 15005KT 10SM CLR 12/06 A2999 RMK AO2
KONA 222232Z AUTO 13007KT 10SM CLR 13/06 A2998 RMK AO2
KONA 222211Z AUTO 14005KT 10SM CLR 14/06 A2999 RMK AO2
KONA 222152Z AUTO 13004KT 10SM CLR 13/06 A2999 RMK AO2
KONA 222132Z AUTO 14004KT 10SM CLR 13/06 A2999 RMK AO2
KONA 222111Z AUTO 14004KT 10SM CLR 13/06 A2999 RMK AO2
KONA 222052Z AUTO 00000KT 10SM CLR 13/05 A3000 RMK AO2
KONA 222032Z AUTO 22003KT 10SM CLR 13/05 A3000 RMK AO2
KONA 222011Z AUTO 00000KT 10SM CLR 13/05 A3000 RMK AO2
KONA 221952Z AUTO 00000KT 10SM CLR 13/05 A3000 RMK AO2
KONA 221932Z AUTO 00000KT 10SM CLR 13/06 A3000 RMK AO2
KONA 221912Z AUTO 29003KT 10SM CLR 12/06 A2999 RMK AO2
KONA 221852Z AUTO 00000KT 10SM CLR 12/05 A3000 RMK AO2
KONA 221832Z AUTO 30003KT 10SM CLR 12/06 A3000 RMK AO2
KONA 221811Z AUTO 29003KT 10SM CLR 12/06 A3001 RMK AO2
KONA 221752Z AUTO 29004KT 10SM SCT120 12/06 A3001 RMK AO2
KONA 221732Z AUTO 30006KT 10SM SCT120 12/06 A3002 RMK AO2
KONA 221712Z AUTO 29005KT 10SM BKN110 12/06 A3002 RMK AO2
KONA 221652Z AUTO 29004KT 10SM BKN095 12/06 A3002 RMK AO2
KONA 221632Z AUTO 30005KT 10SM CLR 12/07 A3002 RMK AO2
KONA 221611Z AUTO 30005KT 10SM SCT120 12/07 A3001 RMK AO2
KONA 221552Z AUTO 28004KT 10SM BKN120 12/07 A3001 RMK AO2
KONA 221532Z AUTO 30005KT 10SM OVC110 11/06 A3001 RMK AO2
KONA 221512Z AUTO 30003KT 10SM OVC110 12/07 A3000 RMK AO2
KONA 221452Z AUTO 31003KT 10SM OVC095 11/06 A2999 RMK AO2
KONA 221432Z AUTO 31004KT 10SM OVC095 11/06 A2999 RMK AO2
KONA 221412Z AUTO 30004KT 10SM OVC095 11/07 A2998 RMK AO2
KONA 221352Z AUTO 30005KT 10SM OVC085 11/07 A2997 RMK AO2
KONA 221332Z AUTO 30003KT 10SM OVC085 11/07 A2997 RMK AO2
KONA 221312Z AUTO 30003KT 10SM OVC085 11/06 A2997 RMK AO2
KONA 221252Z AUTO 00000KT 10SM OVC085 10/07 A2996 RMK AO2
KONA 221232Z AUTO 34003KT 10SM OVC085 10/07 A2995 RMK AO2
KONA 221212Z AUTO 29004KT 10SM SCT075 OVC085 11/07 A2996 RMK AO2
KONA 221152Z AUTO 30005KT 10SM OVC080 11/07 A2996 RMK AO2 P0001
KONA 221132Z AUTO 00000KT 10SM OVC080 11/08 A2995 RMK AO2 P0001
KONA 221112Z AUTO 00000KT 10SM -DZ OVC080 11/08 A2995 RMK AO2
KONA 221052Z AUTO 00000KT 10SM -DZ SCT070 OVC080 11/08 A2994 RMK AO2
KONA 221032Z AUTO 00000KT 10SM -RA OVC080 11/07 A2994 RMK AO2
KONA 221012Z AUTO 30003KT 10SM OVC090 11/07 A2993 RMK AO2
KONA 220952Z AUTO 31005KT 10SM -RA BKN090 OVC120 11/07 A2991 RMK AO2
KONA 220932Z AUTO 30004KT 10SM SCT040 OVC110 12/08 A2990 RMK AO2
KONA 220912Z AUTO 32003KT 10SM -RA SCT043 SCT065 OVC090 11/08 A2990 RMK AO2
KONA 220852Z AUTO 30004KT 10SM -RA SCT055 BKN080 OVC090 12/08 A2989 RMK AO2
KONA 220832Z AUTO 30005KT 10SM -DZ SCT048 BKN055 OVC070 12/08 A2990 RMK AO2
KONA 220812Z AUTO 29003KT 10SM -DZ SCT048 BKN055 OVC070 12/08 A2990 RMK AO2
KONA 220752Z AUTO 30005KT 10SM SCT044 BKN055 OVC070 12/08 A2990 RMK AO2
KONA 220732Z AUTO 29007KT 10SM OVC042 12/08 A2989 RMK AO2
KONA 220712Z AUTO 28005KT 10SM OVC040 12/09 A2989 RMK AO2
KONA 220652Z AUTO 30007KT 10SM OVC035 12/10 A2987 RMK AO2 P0001
KONA 220631Z AUTO 30007KT 10SM -DZ OVC035 12/11 A2986 RMK AO2 P0001
KONA 220612Z AUTO 31007KT 10SM RA OVC031 12/11 A2986 RMK AO2 P0001
KONA 220552Z AUTO 30005KT 7SM -RA OVC029 12/11 A2986 RMK AO2 P0011 LTG DSNT S
KONA 220531Z AUTO 31005KT 7SM -RA SCT016 BKN027 OVC055 13/12 A2986 RMK AO2 P0009